WXForecasting.com
Aberdeen, SD - Weather Station Data
Daily Summary for May 19, 2017 Units:  Both    English   Metric
« Previous Day
Next Day »
Daily Weekly Monthly Yearly Custom
  High: Low: Average:
Temperature: 59.8 °F /  15.4 °C 45.5 °F /  7.5 °C 52.3 °F /  11.3 °C
Dew Point: 42.0 °F /  5.6 °C 31.0 °F /  -0.6 °C 35.5 °F /  1.9 °C
Humidity: 63 % 39 % 54 %
Wind Speed: 14.0 mph /  22.5 km/h - 3.6 mph /  5.8 km/h
Wind Gust: 17.0 mph /  27.4 km/h - -
Wind:- - ENE
Pressure: 30.25 in /  1024.3 hPa 30.18 in /  1021.9 hPa -
Precipitation: 0.00 in /  0 mm    
Historical Graphs
 
 
Tabular Data for May 19, 2017
Time Temperature Dew Point Pressure Wind Wind Speed Wind Gust Humidity Rainfall Rate (Hourly) solar Conditions
00:11 49.6 °F /  9.8 °C 35.0 °F /  1.7 °C 30.18 in /  1021.9 hPa North 3.0 mph /  4.8 km/h 6.0 mph /  9.7 km/h 57 % 0.00 in /  0 mm 0 W/m2
00:26 49.3 °F /  9.6 °C 35.0 °F /  1.7 °C 30.20 in /  1022.6 hPa Calm   5.0 mph /  8 km/h 58 % 0.00 in /  0 mm 0 W/m2
00:41 48.9 °F /  9.4 °C 35.0 °F /  1.7 °C 30.20 in /  1022.6 hPa NNE 3.0 mph /  4.8 km/h 5.0 mph /  8 km/h 59 % 0.00 in /  0 mm 0 W/m2
00:56 48.7 °F /  9.3 °C 35.0 °F /  1.7 °C 30.20 in /  1022.6 hPa NE 3.0 mph /  4.8 km/h 6.0 mph /  9.7 km/h 59 % 0.00 in /  0 mm 0 W/m2
01:11 48.3 °F /  9.1 °C 35.0 °F /  1.7 °C 30.20 in /  1022.6 hPa NNE 2.0 mph /  3.2 km/h 6.0 mph /  9.7 km/h 60 % 0.00 in /  0 mm 0 W/m2
01:26 47.9 °F /  8.8 °C 34.0 °F /  1.1 °C 30.20 in /  1022.6 hPa Calm   5.0 mph /  8 km/h 60 % 0.00 in /  0 mm 0 W/m2
01:41 47.7 °F /  8.7 °C 34.0 °F /  1.1 °C 30.20 in /  1022.6 hPa NNE 1.0 mph /  1.6 km/h 6.0 mph /  9.7 km/h 60 % 0.00 in /  0 mm 0 W/m2
01:56 47.4 °F /  8.6 °C 34.0 °F /  1.1 °C 30.20 in /  1022.6 hPa NNE 5.0 mph /  8 km/h 8.0 mph /  12.9 km/h 60 % 0.00 in /  0 mm 0 W/m2
02:11 47.3 °F /  8.5 °C 33.0 °F /  0.6 °C 30.18 in /  1021.9 hPa NNE 5.0 mph /  8 km/h 6.0 mph /  9.7 km/h 59 % 0.00 in /  0 mm 0 W/m2
02:27 47.4 °F /  8.6 °C 33.0 °F /  0.6 °C 30.18 in /  1021.9 hPa NNE 5.0 mph /  8 km/h 9.0 mph /  14.5 km/h 58 % 0.00 in /  0 mm 0 W/m2
02:42 47.8 °F /  8.8 °C 32.0 °F /  0 °C 30.18 in /  1021.9 hPa North 3.0 mph /  4.8 km/h 8.0 mph /  12.9 km/h 55 % 0.00 in /  0 mm 0 W/m2
02:57 47.9 °F /  8.8 °C 32.0 °F /  0 °C 30.19 in /  1022.2 hPa NNE 4.0 mph /  6.4 km/h 5.0 mph /  8 km/h 55 % 0.00 in /  0 mm 0 W/m2
03:12 47.7 °F /  8.7 °C 32.0 °F /  0 °C 30.19 in /  1022.2 hPa NNE 2.0 mph /  3.2 km/h 8.0 mph /  12.9 km/h 56 % 0.00 in /  0 mm 0 W/m2
03:27 47.4 °F /  8.6 °C 32.0 °F /  0 °C 30.19 in /  1022.2 hPa NE 1.0 mph /  1.6 km/h 6.0 mph /  9.7 km/h 56 % 0.00 in /  0 mm 0 W/m2
03:42 47.4 °F /  8.6 °C 33.0 °F /  0.6 °C 30.20 in /  1022.6 hPa NE 3.0 mph /  4.8 km/h 6.0 mph /  9.7 km/h 57 % 0.00 in /  0 mm 0 W/m2
03:57 47.3 °F /  8.5 °C 33.0 °F /  0.6 °C 30.20 in /  1022.6 hPa NE 2.0 mph /  3.2 km/h 6.0 mph /  9.7 km/h 57 % 0.00 in /  0 mm 0 W/m2
04:12 47.1 °F /  8.4 °C 33.0 °F /  0.6 °C 30.21 in /  1022.9 hPa NNE 3.0 mph /  4.8 km/h 6.0 mph /  9.7 km/h 58 % 0.00 in /  0 mm 0 W/m2
04:27 47.0 °F /  8.3 °C 33.0 °F /  0.6 °C 30.21 in /  1022.9 hPa NNE 5.0 mph /  8 km/h 6.0 mph /  9.7 km/h 59 % 0.00 in /  0 mm 0 W/m2
04:42 47.0 °F /  8.3 °C 33.0 °F /  0.6 °C 30.21 in /  1022.9 hPa NE 3.0 mph /  4.8 km/h 5.0 mph /  8 km/h 59 % 0.00 in /  0 mm 0 W/m2
04:57 47.0 °F /  8.3 °C 33.0 °F /  0.6 °C 30.21 in /  1022.9 hPa NE 2.0 mph /  3.2 km/h 9.0 mph /  14.5 km/h 59 % 0.00 in /  0 mm 0 W/m2
05:12 46.8 °F /  8.2 °C 33.0 °F /  0.6 °C 30.21 in /  1022.9 hPa NE 7.0 mph /  11.3 km/h 9.0 mph /  14.5 km/h 60 % 0.00 in /  0 mm 0 W/m2
05:27 46.6 °F /  8.1 °C 34.0 °F /  1.1 °C 30.21 in /  1022.9 hPa NE 5.0 mph /  8 km/h 11.0 mph /  17.7 km/h 61 % 0.00 in /  0 mm 0 W/m2
05:42 46.4 °F /  8 °C 33.0 °F /  0.6 °C 30.22 in /  1023.2 hPa NNE 4.0 mph /  6.4 km/h 8.0 mph /  12.9 km/h 61 % 0.00 in /  0 mm 0 W/m2
05:57 46.2 °F /  7.9 °C 34.0 °F /  1.1 °C 30.22 in /  1023.2 hPa NNE 3.0 mph /  4.8 km/h 6.0 mph /  9.7 km/h 62 % 0.00 in /  0 mm 0 W/m2
06:12 45.9 °F /  7.7 °C 33.0 °F /  0.6 °C 30.22 in /  1023.2 hPa NNE 4.0 mph /  6.4 km/h 6.0 mph /  9.7 km/h 62 % 0.00 in /  0 mm 5 W/m2
06:27 45.8 °F /  7.7 °C 34.0 °F /  1.1 °C 30.22 in /  1023.2 hPa NNE 2.0 mph /  3.2 km/h 5.0 mph /  8 km/h 63 % 0.00 in /  0 mm 11 W/m2
06:42 45.5 °F /  7.5 °C 33.0 °F /  0.6 °C 30.22 in /  1023.2 hPa North 2.0 mph /  3.2 km/h 8.0 mph /  12.9 km/h 63 % 0.00 in /  0 mm 18 W/m2
06:57 45.6 °F /  7.6 °C 33.0 °F /  0.6 °C 30.24 in /  1023.9 hPa NNE 4.0 mph /  6.4 km/h 10.0 mph /  16.1 km/h 62 % 0.00 in /  0 mm 28 W/m2
07:12 45.8 °F /  7.7 °C 33.0 °F /  0.6 °C 30.24 in /  1023.9 hPa NE 3.0 mph /  4.8 km/h 8.0 mph /  12.9 km/h 62 % 0.00 in /  0 mm 44 W/m2
07:27 45.9 °F /  7.7 °C 33.0 °F /  0.6 °C 30.23 in /  1023.6 hPa NNE 5.0 mph /  8 km/h 6.0 mph /  9.7 km/h 62 % 0.00 in /  0 mm 62 W/m2
07:42 46.1 °F /  7.8 °C 34.0 °F /  1.1 °C 30.23 in /  1023.6 hPa NNE 1.0 mph /  1.6 km/h 8.0 mph /  12.9 km/h 62 % 0.00 in /  0 mm 72 W/m2
07:57 46.4 °F /  8 °C 34.0 °F /  1.1 °C 30.23 in /  1023.6 hPa NNE 3.0 mph /  4.8 km/h 10.0 mph /  16.1 km/h 62 % 0.00 in /  0 mm 83 W/m2
08:12 46.6 °F /  8.1 °C 34.0 °F /  1.1 °C 30.23 in /  1023.6 hPa NE 5.0 mph /  8 km/h 10.0 mph /  16.1 km/h 63 % 0.00 in /  0 mm 102 W/m2
08:27 47.0 °F /  8.3 °C 34.0 °F /  1.1 °C 30.23 in /  1023.6 hPa NNE 4.0 mph /  6.4 km/h 9.0 mph /  14.5 km/h 62 % 0.00 in /  0 mm 116 W/m2
08:42 47.6 °F /  8.7 °C 35.0 °F /  1.7 °C 30.23 in /  1023.6 hPa ENE 6.0 mph /  9.7 km/h 8.0 mph /  12.9 km/h 62 % 0.00 in /  0 mm 125 W/m2
08:57 47.9 °F /  8.8 °C 36.0 °F /  2.2 °C 30.23 in /  1023.6 hPa NE 3.0 mph /  4.8 km/h 6.0 mph /  9.7 km/h 63 % 0.00 in /  0 mm 130 W/m2
09:12 48.5 °F /  9.2 °C 36.0 °F /  2.2 °C 30.23 in /  1023.6 hPa NE 6.0 mph /  9.7 km/h 11.0 mph /  17.7 km/h 63 % 0.00 in /  0 mm 130 W/m2
09:27 48.9 °F /  9.4 °C 37.0 °F /  2.8 °C 30.24 in /  1023.9 hPa Calm   11.0 mph /  17.7 km/h 63 % 0.00 in /  0 mm 137 W/m2
09:42 49.6 °F /  9.8 °C 37.0 °F /  2.8 °C 30.24 in /  1023.9 hPa ENE 4.0 mph /  6.4 km/h 9.0 mph /  14.5 km/h 63 % 0.00 in /  0 mm 137 W/m2
09:57 50.3 °F /  10.2 °C 38.0 °F /  3.3 °C 30.24 in /  1023.9 hPa NE 9.0 mph /  14.5 km/h 11.0 mph /  17.7 km/h 63 % 0.00 in /  0 mm 153 W/m2
10:13 51.0 °F /  10.6 °C 39.0 °F /  3.9 °C 30.23 in /  1023.6 hPa ESE 1.0 mph /  1.6 km/h 9.0 mph /  14.5 km/h 63 % 0.00 in /  0 mm 165 W/m2
10:28 51.6 °F /  10.9 °C 39.0 °F /  3.9 °C 30.24 in /  1023.9 hPa East 2.0 mph /  3.2 km/h 11.0 mph /  17.7 km/h 62 % 0.00 in /  0 mm 197 W/m2
10:43 52.3 °F /  11.3 °C 40.0 °F /  4.4 °C 30.24 in /  1023.9 hPa NE 1.0 mph /  1.6 km/h 10.0 mph /  16.1 km/h 63 % 0.00 in /  0 mm 237 W/m2
10:58 53.5 °F /  11.9 °C 40.0 °F /  4.4 °C 30.25 in /  1024.3 hPa East 2.0 mph /  3.2 km/h 6.0 mph /  9.7 km/h 60 % 0.00 in /  0 mm 320 W/m2
11:13 54.8 °F /  12.7 °C 40.0 °F /  4.4 °C 30.25 in /  1024.3 hPa NE 3.0 mph /  4.8 km/h 6.0 mph /  9.7 km/h 57 % 0.00 in /  0 mm 390 W/m2
11:28 55.5 °F /  13.1 °C 40.0 °F /  4.4 °C 30.24 in /  1023.9 hPa East 2.0 mph /  3.2 km/h 6.0 mph /  9.7 km/h 57 % 0.00 in /  0 mm 381 W/m2
11:43 56.3 °F /  13.5 °C 41.0 °F /  5 °C 30.25 in /  1024.3 hPa SE 3.0 mph /  4.8 km/h 6.0 mph /  9.7 km/h 56 % 0.00 in /  0 mm 459 W/m2
11:58 57.3 °F /  14.1 °C 41.0 °F /  5 °C 30.24 in /  1023.9 hPa East 1.0 mph /  1.6 km/h 6.0 mph /  9.7 km/h 54 % 0.00 in /  0 mm 452 W/m2
12:13 57.6 °F /  14.2 °C 40.0 °F /  4.4 °C 30.24 in /  1023.9 hPa ESE 2.0 mph /  3.2 km/h 7.0 mph /  11.3 km/h 52 % 0.00 in /  0 mm 533 W/m2
12:28 58.3 °F /  14.6 °C 37.0 °F /  2.8 °C 30.24 in /  1023.9 hPa NE 5.0 mph /  8 km/h 9.0 mph /  14.5 km/h 46 % 0.00 in /  0 mm 592 W/m2
12:43 58.1 °F /  14.5 °C 40.0 °F /  4.4 °C 30.24 in /  1023.9 hPa SE 4.0 mph /  6.4 km/h 10.0 mph /  16.1 km/h 51 % 0.00 in /  0 mm 478 W/m2
12:58 58.2 °F /  14.6 °C 39.0 °F /  3.9 °C 30.23 in /  1023.6 hPa East 3.0 mph /  4.8 km/h 9.0 mph /  14.5 km/h 50 % 0.00 in /  0 mm 476 W/m2
13:13 58.2 °F /  14.6 °C 40.0 °F /  4.4 °C 30.23 in /  1023.6 hPa ENE 4.0 mph /  6.4 km/h 13.0 mph /  20.9 km/h 51 % 0.00 in /  0 mm 475 W/m2
13:28 58.7 °F /  14.8 °C 40.0 °F /  4.4 °C 30.23 in /  1023.6 hPa East 1.0 mph /  1.6 km/h 8.0 mph /  12.9 km/h 51 % 0.00 in /  0 mm 499 W/m2
13:43 58.7 °F /  14.8 °C 42.0 °F /  5.6 °C 30.23 in /  1023.6 hPa SE 2.0 mph /  3.2 km/h 10.0 mph /  16.1 km/h 54 % 0.00 in /  0 mm 508 W/m2
13:58 58.9 °F /  14.9 °C 41.0 °F /  5 °C 30.23 in /  1023.6 hPa North 7.0 mph /  11.3 km/h 12.0 mph /  19.3 km/h 52 % 0.00 in /  0 mm 640 W/m2
14:13 59.3 °F /  15.2 °C 41.0 °F /  5 °C 30.23 in /  1023.6 hPa NE 2.0 mph /  3.2 km/h 14.0 mph /  22.5 km/h 51 % 0.00 in /  0 mm 390 W/m2
14:28 58.9 °F /  14.9 °C 40.0 °F /  4.4 °C 30.23 in /  1023.6 hPa SSE 3.0 mph /  4.8 km/h 12.0 mph /  19.3 km/h 49 % 0.00 in /  0 mm 455 W/m2
14:43 59.2 °F /  15.1 °C 40.0 °F /  4.4 °C 30.22 in /  1023.2 hPa East 2.0 mph /  3.2 km/h 10.0 mph /  16.1 km/h 50 % 0.00 in /  0 mm 422 W/m2
14:58 58.2 °F /  14.6 °C 40.0 °F /  4.4 °C 30.23 in /  1023.6 hPa NE 9.0 mph /  14.5 km/h 15.0 mph /  24.1 km/h 52 % 0.00 in /  0 mm 336 W/m2
15:13 57.9 °F /  14.4 °C 40.0 °F /  4.4 °C 30.23 in /  1023.6 hPa ENE 6.0 mph /  9.7 km/h 11.0 mph /  17.7 km/h 51 % 0.00 in /  0 mm 322 W/m2
15:28 58.5 °F /  14.7 °C 39.0 °F /  3.9 °C 30.23 in /  1023.6 hPa NE 4.0 mph /  6.4 km/h 11.0 mph /  17.7 km/h 48 % 0.00 in /  0 mm 415 W/m2
15:43 58.1 °F /  14.5 °C 39.0 °F /  3.9 °C 30.23 in /  1023.6 hPa East 2.0 mph /  3.2 km/h 13.0 mph /  20.9 km/h 49 % 0.00 in /  0 mm 606 W/m2
15:58 58.8 °F /  14.9 °C 39.0 °F /  3.9 °C 30.22 in /  1023.2 hPa ENE 2.0 mph /  3.2 km/h 10.0 mph /  16.1 km/h 49 % 0.00 in /  0 mm 459 W/m2
16:13 59.1 °F /  15.1 °C 40.0 °F /  4.4 °C 30.21 in /  1022.9 hPa East 4.0 mph /  6.4 km/h 13.0 mph /  20.9 km/h 50 % 0.00 in /  0 mm 538 W/m2
16:28 59.4 °F /  15.2 °C 41.0 °F /  5 °C 30.19 in /  1022.2 hPa NE 6.0 mph /  9.7 km/h 15.0 mph /  24.1 km/h 50 % 0.00 in /  0 mm 831 W/m2
16:43 59.4 °F /  15.2 °C 38.0 °F /  3.3 °C 30.20 in /  1022.6 hPa North 4.0 mph /  6.4 km/h 14.0 mph /  22.5 km/h 45 % 0.00 in /  0 mm 763 W/m2
16:58 59.8 °F /  15.4 °C 38.0 °F /  3.3 °C 30.19 in /  1022.2 hPa NNE 8.0 mph /  12.9 km/h 14.0 mph /  22.5 km/h 44 % 0.00 in /  0 mm 364 W/m2
17:13 59.2 °F /  15.1 °C 37.0 °F /  2.8 °C 30.19 in /  1022.2 hPa NNE 6.0 mph /  9.7 km/h 15.0 mph /  24.1 km/h 44 % 0.00 in /  0 mm 338 W/m2
17:28 58.7 °F /  14.8 °C 37.0 °F /  2.8 °C 30.19 in /  1022.2 hPa NNE 8.0 mph /  12.9 km/h 17.0 mph /  27.4 km/h 45 % 0.00 in /  0 mm 346 W/m2
17:43 58.5 °F /  14.7 °C 38.0 °F /  3.3 °C 30.20 in /  1022.6 hPa ENE 5.0 mph /  8 km/h 16.0 mph /  25.7 km/h 47 % 0.00 in /  0 mm 253 W/m2
17:59 58.3 °F /  14.6 °C 36.0 °F /  2.2 °C 30.19 in /  1022.2 hPa SE 7.0 mph /  11.3 km/h 13.0 mph /  20.9 km/h 44 % 0.00 in /  0 mm 262 W/m2
18:13 57.8 °F /  14.3 °C 34.0 °F /  1.1 °C 30.19 in /  1022.2 hPa NE 9.0 mph /  14.5 km/h 15.0 mph /  24.1 km/h 41 % 0.00 in /  0 mm 148 W/m2
18:28 57.0 °F /  13.9 °C 32.0 °F /  0 °C 30.20 in /  1022.6 hPa NE 14.0 mph /  22.5 km/h 14.0 mph /  22.5 km/h 39 % 0.00 in /  0 mm 84 W/m2
18:44 56.7 °F /  13.7 °C 33.0 °F /  0.6 °C 30.21 in /  1022.9 hPa NE 7.0 mph /  11.3 km/h 14.0 mph /  22.5 km/h 41 % 0.00 in /  0 mm 77 W/m2
18:58 56.2 °F /  13.4 °C 32.0 °F /  0 °C 30.20 in /  1022.6 hPa ENE 3.0 mph /  4.8 km/h 16.0 mph /  25.7 km/h 40 % 0.00 in /  0 mm 60 W/m2
19:14 55.8 °F /  13.2 °C 32.0 °F /  0 °C 30.19 in /  1022.2 hPa ENE 12.0 mph /  19.3 km/h 15.0 mph /  24.1 km/h 40 % 0.00 in /  0 mm 83 W/m2
19:29 55.7 °F /  13.2 °C 33.0 °F /  0.6 °C 30.19 in /  1022.2 hPa East 8.0 mph /  12.9 km/h 15.0 mph /  24.1 km/h 42 % 0.00 in /  0 mm 79 W/m2
19:44 55.5 °F /  13.1 °C 34.0 °F /  1.1 °C 30.19 in /  1022.2 hPa NE 5.0 mph /  8 km/h 12.0 mph /  19.3 km/h 45 % 0.00 in /  0 mm 72 W/m2
19:59 54.9 °F /  12.7 °C 33.0 °F /  0.6 °C 30.19 in /  1022.2 hPa East 6.0 mph /  9.7 km/h 12.0 mph /  19.3 km/h 44 % 0.00 in /  0 mm 62 W/m2
20:14 54.5 °F /  12.5 °C 32.0 °F /  0 °C 30.20 in /  1022.6 hPa NE 2.0 mph /  3.2 km/h 13.0 mph /  20.9 km/h 43 % 0.00 in /  0 mm 46 W/m2
20:29 54.2 °F /  12.3 °C 33.0 °F /  0.6 °C 30.20 in /  1022.6 hPa NE 6.0 mph /  9.7 km/h 13.0 mph /  20.9 km/h 44 % 0.00 in /  0 mm 32 W/m2
20:44 53.8 °F /  12.1 °C 33.0 °F /  0.6 °C 30.20 in /  1022.6 hPa ENE 3.0 mph /  4.8 km/h 13.0 mph /  20.9 km/h 45 % 0.00 in /  0 mm 12 W/m2
20:59 53.3 °F /  11.8 °C 32.0 °F /  0 °C 30.20 in /  1022.6 hPa NE 4.0 mph /  6.4 km/h 12.0 mph /  19.3 km/h 44 % 0.00 in /  0 mm 0 W/m2
21:14 53.0 °F /  11.7 °C 31.0 °F /  -0.6 °C 30.20 in /  1022.6 hPa Calm   7.0 mph /  11.3 km/h 44 % 0.00 in /  0 mm 0 W/m2
21:29 52.7 °F /  11.5 °C 32.0 °F /  0 °C 30.21 in /  1022.9 hPa Calm   5.0 mph /  8 km/h 46 % 0.00 in /  0 mm 0 W/m2
21:44 52.4 °F /  11.3 °C 33.0 °F /  0.6 °C 30.22 in /  1023.2 hPa East 1.0 mph /  1.6 km/h 4.0 mph /  6.4 km/h 48 % 0.00 in /  0 mm 0 W/m2
21:59 52.1 °F /  11.2 °C 34.0 °F /  1.1 °C 30.22 in /  1023.2 hPa East 1.0 mph /  1.6 km/h 6.0 mph /  9.7 km/h 50 % 0.00 in /  0 mm 0 W/m2
22:14 52.1 °F /  11.2 °C 34.0 °F /  1.1 °C 30.21 in /  1022.9 hPa East 3.0 mph /  4.8 km/h 11.0 mph /  17.7 km/h 50 % 0.00 in /  0 mm 0 W/m2
22:44 51.6 °F /  10.9 °C 32.0 °F /  0 °C 30.21 in /  1022.9 hPa East 1.0 mph /  1.6 km/h 7.0 mph /  11.3 km/h 47 % 0.00 in /  0 mm 0 W/m2
22:59 51.4 °F /  10.8 °C 32.0 °F /  0 °C 30.21 in /  1022.9 hPa Calm   6.0 mph /  9.7 km/h 48 % 0.00 in /  0 mm 0 W/m2
23:14 51.1 °F /  10.6 °C 32.0 °F /  0 °C 30.21 in /  1022.9 hPa ESE 1.0 mph /  1.6 km/h 3.0 mph /  4.8 km/h 49 % 0.00 in /  0 mm 0 W/m2
23:29 51.0 °F /  10.6 °C 33.0 °F /  0.6 °C 30.21 in /  1022.9 hPa ESE 1.0 mph /  1.6 km/h 4.0 mph /  6.4 km/h 50 % 0.00 in /  0 mm 0 W/m2
23:44 50.8 °F /  10.4 °C 33.0 °F /  0.6 °C 30.21 in /  1022.9 hPa Calm   2.0 mph /  3.2 km/h 51 % 0.00 in /  0 mm 0 W/m2
23:59 50.8 °F /  10.4 °C 33.0 °F /  0.6 °C 30.20 in /  1022.6 hPa ESE 2.0 mph /  3.2 km/h 3.0 mph /  4.8 km/h 51 % 0.00 in /  0 mm 0 W/m2
Compliments of Weather Underground - 1 mb